Terminal Aerodrome Forecast
Issued by NWS Paducah, KY

Home | Current Version | Previous Version | Text Only | Print | Product List | Glossary Off
Versions: 1 2 3 4 5 6 7 8 9 10 11 12 13 14 15 16 17 18

922
FTUS43 KPAH 292118 AAB
TAFPAH
TAF AMD
KPAH 292118Z 2921/3018 32006KT P6SM VCSH FEW025 BKN080
     FM300600 33004KT 3SM BR BKN010
     FM301400 32005KT P6SM BKN015=

USA.gov is the U.S. government's official web portal to all federal, state and local government web resources and services.